Time;durP1;ratioP1;P1;durP2;ratioP2;P2;SDS_P1;SDS_P2;PMS_P1;PMS_P2;Temp;Humidity;BMP_temperature;BMP_pressure;BME280_temperature;BME280_humidity;BME280_pressure;Samples;Min_cycle;Max_cycle;Signal;HPM_P1;HPM_P2
2023/05/11 00:01:17;;;;;;;9.83;8.37;;;15.80;99.90;;;;;;5028457;28;20249;-72
2023/05/11 00:03:43;;;;;;;10.37;7.90;;;15.80;99.90;;;;;;5026630;28;20199;-72
2023/05/11 00:06:08;;;;;;;9.27;8.37;;;15.70;99.90;;;;;;5033505;28;20230;-71
2023/05/11 00:08:34;;;;;;;12.73;9.77;;;15.70;99.90;;;;;;5037794;28;20200;-71
2023/05/11 00:11:00;;;;;;;11.27;10.13;;;15.60;99.90;;;;;;5037847;28;22959;-72
2023/05/11 00:13:26;;;;;;;13.13;9.10;;;15.60;99.90;;;;;;5037821;28;20338;-72
2023/05/11 00:15:52;;;;;;;9.57;8.60;;;15.50;99.90;;;;;;5032747;28;20208;-72
2023/05/11 00:18:17;;;;;;;10.03;8.97;;;15.50;99.90;;;;;;5030126;28;20203;-72
2023/05/11 00:20:43;;;;;;;9.67;8.47;;;15.50;99.90;;;;;;5028226;28;20195;-72
2023/05/11 00:23:08;;;;;;;11.40;10.30;;;15.50;99.90;;;;;;5027870;28;20203;-71
2023/05/11 00:25:33;;;;;;;11.00;9.87;;;15.40;99.90;;;;;;5037331;28;20211;-71
2023/05/11 00:27:59;;;;;;;9.57;8.67;;;15.30;99.90;;;;;;5037349;28;20230;-71
2023/05/11 00:30:24;;;;;;;11.23;8.73;;;15.30;99.90;;;;;;5037139;28;20221;-73
2023/05/11 00:32:50;;;;;;;9.53;8.53;;;15.30;99.90;;;;;;5026485;28;20237;-72
2023/05/11 00:35:16;;;;;;;10.27;9.27;;;15.20;99.90;;;;;;5037316;28;20298;-72
2023/05/11 00:37:41;;;;;;;11.83;9.07;;;15.20;99.90;;;;;;5035870;28;20206;-72
2023/05/11 00:40:07;;;;;;;10.73;9.40;;;15.10;99.90;;;;;;5028008;28;20271;-72
2023/05/11 00:42:33;;;;;;;10.03;9.03;;;15.10;99.90;;;;;;5033172;28;20697;-73
2023/05/11 00:44:59;;;;;;;10.20;9.20;;;15.00;99.90;;;;;;5031452;28;20287;-71
2023/05/11 00:47:24;;;;;;;10.63;9.40;;;15.00;99.90;;;;;;5035467;28;20660;-72
2023/05/11 00:49:52;;;;;;;10.30;9.20;;;15.00;99.90;;;;;;5037235;28;20202;-72
2023/05/11 00:52:18;;;;;;;12.87;10.33;;;14.90;99.90;;;;;;5037249;28;20662;-72
2023/05/11 00:54:46;;;;;;;12.40;10.20;;;14.90;99.90;;;;;;5036808;28;20535;-72
2023/05/11 00:57:11;;;;;;;11.17;9.70;;;14.90;99.90;;;;;;5034876;28;20282;-73
2023/05/11 00:59:37;;;;;;;12.27;10.70;;;14.80;99.90;;;;;;5027317;28;20302;-73
2023/05/11 01:02:03;;;;;;;10.63;9.53;;;14.80;99.90;;;;;;5034951;28;20231;-74
2023/05/11 01:04:29;;;;;;;11.90;9.97;;;14.80;99.90;;;;;;5029406;28;20754;-72
2023/05/11 01:07:15;;;;;;;10.53;9.07;;;14.80;99.90;;;;;;5036778;28;20214;-72
2023/05/11 01:10:05;;;;;;;12.17;9.37;;;14.70;99.90;;;;;;5036639;28;20206;-71
2023/05/11 01:12:46;;;;;;;16.53;10.10;;;14.70;99.90;;;;;;5036637;28;20199;-71
2023/05/11 01:15:27;;;;;;;11.23;9.63;;;14.70;99.90;;;;;;5034981;28;20214;-71
2023/05/11 01:18:30;;;;;;;9.00;8.13;;;14.60;99.90;;;;;;5028139;28;20576;-70
2023/05/11 01:20:59;;;;;;;10.37;9.30;;;14.50;99.90;;;;;;5029341;28;20198;-71
2023/05/11 01:24:05;;;;;;;10.40;9.30;;;14.60;99.90;;;;;;5036854;28;20203;-70
2023/05/11 01:27:09;;;;;;;8.53;7.73;;;14.60;99.90;;;;;;5036928;28;20740;-72
2023/05/11 01:29:41;;;;;;;8.37;7.67;;;14.60;99.90;;;;;;5036017;28;20250;-70
2023/05/11 01:32:19;;;;;;;10.43;8.53;;;14.40;99.90;;;;;;5026992;28;20225;-71
2023/05/11 01:34:46;;;;;;;12.03;9.10;;;14.30;99.90;;;;;;5036399;28;20218;-70
2023/05/11 01:37:20;;;;;;;8.60;7.90;;;14.30;99.90;;;;;;5034682;28;20194;-70
2023/05/11 01:39:52;;;;;;;9.70;8.80;;;14.20;99.90;;;;;;5036161;28;20886;-70
2023/05/11 01:42:23;;;;;;;9.60;8.70;;;14.10;99.90;;;;;;5029768;28;20191;-70
2023/05/11 01:44:52;;;;;;;9.60;8.23;;;14.20;99.90;;;;;;5021655;28;20693;-70
2023/05/11 01:47:20;;;;;;;8.70;7.90;;;14.30;99.90;;;;;;5035926;28;20252;-70
2023/05/11 01:49:46;;;;;;;10.00;8.50;;;14.20;99.90;;;;;;5035893;28;20206;-71
2023/05/11 01:52:14;;;;;;;9.57;8.63;;;14.20;99.90;;;;;;5035851;28;20195;-72
2023/05/11 01:54:40;;;;;;;9.10;8.20;;;14.20;99.90;;;;;;5025566;28;20673;-71
2023/05/11 01:57:08;;;;;;;10.03;9.20;;;14.20;99.90;;;;;;5027494;28;20214;-72
2023/05/11 01:59:38;;;;;;;9.73;8.77;;;14.00;99.90;;;;;;5028285;28;20210;-72
2023/05/11 02:02:05;;;;;;;10.63;9.63;;;14.00;99.90;;;;;;5030476;28;20204;-71
2023/05/11 02:04:31;;;;;;;9.90;8.90;;;14.00;99.90;;;;;;5035231;28;20222;-72
2023/05/11 02:06:59;;;;;;;11.63;9.10;;;13.90;99.90;;;;;;5036386;28;20203;-71
2023/05/11 02:09:26;;;;;;;10.57;9.50;;;13.90;99.90;;;;;;5036196;28;20685;-71
2023/05/11 02:11:54;;;;;;;9.87;8.87;;;13.80;99.90;;;;;;5035710;28;20207;-70
2023/05/11 02:14:21;;;;;;;10.87;8.87;;;13.80;99.90;;;;;;5034704;28;20202;-71
2023/05/11 02:16:48;;;;;;;11.30;8.47;;;13.80;99.90;;;;;;5035833;28;20238;-70
2023/05/11 02:19:15;;;;;;;12.47;9.30;;;13.80;99.90;;;;;;5035863;28;20687;-71
2023/05/11 02:21:42;;;;;;;10.83;9.60;;;13.80;99.90;;;;;;5034508;28;20233;-71
2023/05/11 02:24:09;;;;;;;11.13;9.90;;;13.70;99.90;;;;;;5033617;28;20218;-72
2023/05/11 02:26:35;;;;;;;12.47;10.47;;;13.70;99.90;;;;;;5034244;28;20191;-72
2023/05/11 02:29:00;;;;;;;10.20;9.20;;;13.70;99.90;;;;;;5028007;28;23053;-71
2023/05/11 02:31:33;;;;;;;10.70;9.40;;;13.70;99.90;;;;;;5032282;28;20206;-69
2023/05/11 02:34:06;;;;;;;11.23;10.00;;;13.60;99.90;;;;;;5013138;28;20592;-71
2023/05/11 02:36:32;;;;;;;11.23;10.03;;;13.60;99.90;;;;;;5023805;28;20195;-71
2023/05/11 02:39:05;;;;;;;11.07;9.97;;;13.60;99.90;;;;;;5023688;28;20211;-71
2023/05/11 02:41:32;;;;;;;11.73;10.53;;;13.70;99.90;;;;;;5021918;28;20673;-71
2023/05/11 02:44:02;;;;;;;12.73;11.30;;;13.70;99.90;;;;;;5024517;28;20199;-71
2023/05/11 02:46:34;;;;;;;10.97;9.97;;;13.60;99.90;;;;;;5024291;28;20203;-70
2023/05/11 02:49:03;;;;;;;12.03;10.90;;;13.50;99.90;;;;;;5023038;28;20206;-70
2023/05/11 02:51:37;;;;;;;11.07;10.03;;;13.50;99.90;;;;;;5025196;28;20206;-71
2023/05/11 02:54:06;;;;;;;11.83;10.73;;;13.40;99.90;;;;;;5025060;28;20195;-70
2023/05/11 02:56:31;;;;;;;12.57;11.30;;;13.40;99.90;;;;;;5020996;28;20187;-72
2023/05/11 02:58:57;;;;;;;13.73;11.47;;;13.40;99.90;;;;;;5024117;28;20269;-71
2023/05/11 03:01:23;;;;;;;11.90;10.80;;;13.40;99.90;;;;;;5024167;28;20198;-71
2023/05/11 03:03:48;;;;;;;12.43;11.13;;;13.50;99.90;;;;;;5023722;28;20677;-71
2023/05/11 03:06:14;;;;;;;12.10;9.50;;;13.50;99.90;;;;;;5025389;28;20191;-71
2023/05/11 03:08:40;;;;;;;11.17;9.33;;;13.50;99.90;;;;;;5027647;28;20563;-70
2023/05/11 03:11:07;;;;;;;10.10;9.10;;;13.60;99.90;;;;;;5023337;28;20209;-72
2023/05/11 03:13:33;;;;;;;13.10;9.17;;;13.60;99.90;;;;;;5024740;28;20231;-74
2023/05/11 03:16:01;;;;;;;9.40;8.50;;;13.60;99.90;;;;;;5028347;28;20223;-72
2023/05/11 03:18:28;;;;;;;9.27;7.83;;;13.50;99.90;;;;;;5026793;28;20617;-70
2023/05/11 03:20:56;;;;;;;10.23;7.70;;;13.60;99.90;;;;;;5028080;28;20203;-70
2023/05/11 03:23:22;;;;;;;12.30;8.60;;;13.70;99.90;;;;;;5027348;28;20277;-71
2023/05/11 03:25:48;;;;;;;9.40;8.27;;;13.70;99.90;;;;;;5027906;28;20313;-71
2023/05/11 03:28:14;;;;;;;8.33;7.43;;;13.70;99.90;;;;;;5027475;28;20306;-71
2023/05/11 03:30:43;;;;;;;9.03;8.20;;;13.70;99.90;;;;;;5026704;28;20211;-69
2023/05/11 03:33:09;;;;;;;8.10;7.40;;;13.80;99.90;;;;;;5025770;28;20301;-70
2023/05/11 03:35:36;;;;;;;8.30;7.60;;;13.70;99.90;;;;;;5028074;28;20249;-71
2023/05/11 03:38:04;;;;;;;8.50;7.70;;;13.80;99.90;;;;;;5027626;28;20684;-72
2023/05/11 03:40:32;;;;;;;8.43;7.60;;;13.80;99.90;;;;;;5026785;28;20196;-72
2023/05/11 03:42:59;;;;;;;7.70;7.10;;;13.70;99.90;;;;;;5024805;28;20676;-71
2023/05/11 03:45:27;;;;;;;8.80;8.10;;;13.70;99.90;;;;;;5022728;28;20218;-72
2023/05/11 03:47:55;;;;;;;8.80;8.00;;;13.60;99.90;;;;;;5029099;28;20195;-71
2023/05/11 03:50:21;;;;;;;8.63;7.83;;;13.60;99.90;;;;;;5026608;28;20661;-72
2023/05/11 03:52:47;;;;;;;8.87;7.73;;;13.60;99.90;;;;;;5023676;28;20203;-71
2023/05/11 03:55:13;;;;;;;8.97;8.10;;;13.60;99.90;;;;;;5028885;28;20195;-72
2023/05/11 03:57:39;;;;;;;8.30;7.47;;;13.70;99.90;;;;;;5032654;28;20194;-71
2023/05/11 04:00:07;;;;;;;8.53;7.57;;;13.70;99.90;;;;;;5024533;28;20670;-72
2023/05/11 04:02:34;;;;;;;8.90;7.77;;;13.60;99.90;;;;;;5026085;28;20665;-71
2023/05/11 04:04:59;;;;;;;8.27;7.40;;;13.50;99.90;;;;;;5027218;28;20238;-71
2023/05/11 04:07:25;;;;;;;8.27;7.50;;;13.50;99.90;;;;;;5023702;28;20646;-71
2023/05/11 04:09:50;;;;;;;8.40;7.17;;;13.40;99.90;;;;;;5026516;28;20210;-73
2023/05/11 04:12:16;;;;;;;9.83;7.60;;;13.60;99.90;;;;;;5028849;28;20352;-72
2023/05/11 04:14:42;;;;;;;10.93;6.57;;;13.70;99.90;;;;;;5024278;28;20199;-72
2023/05/11 04:17:07;;;;;;;8.03;7.33;;;13.60;99.90;;;;;;5026841;28;20294;-71
2023/05/11 04:19:33;;;;;;;7.63;7.03;;;13.60;99.90;;;;;;5023734;28;20218;-70
2023/05/11 04:21:58;;;;;;;7.80;7.13;;;13.50;99.90;;;;;;5026445;28;20199;-70
2023/05/11 04:24:23;;;;;;;6.90;6.30;;;13.50;99.90;;;;;;5027033;28;20640;-71
2023/05/11 04:26:55;;;;;;;7.43;6.70;;;13.50;99.90;;;;;;5028295;28;20507;-72
2023/05/11 04:29:20;;;;;;;7.23;6.53;;;13.60;99.90;;;;;;5024212;28;20223;-70
2023/05/11 04:31:46;;;;;;;6.20;5.60;;;13.70;99.90;;;;;;5026559;28;20705;-70
2023/05/11 04:34:11;;;;;;;8.87;7.23;;;13.50;99.90;;;;;;5024928;28;20233;-71
2023/05/11 04:36:37;;;;;;;7.87;7.03;;;13.50;99.90;;;;;;5026245;28;20230;-70
2023/05/11 04:39:03;;;;;;;7.97;7.33;;;13.40;99.90;;;;;;5026056;28;20287;-69
2023/05/11 04:41:29;;;;;;;6.97;6.37;;;13.50;99.90;;;;;;5025896;28;20198;-70
2023/05/11 04:43:54;;;;;;;7.10;6.50;;;13.60;99.90;;;;;;5022247;28;20312;-70
2023/05/11 04:46:21;;;;;;;6.80;6.30;;;13.60;99.90;;;;;;5026177;28;20191;-70
2023/05/11 04:48:46;;;;;;;8.00;7.30;;;13.70;99.90;;;;;;5023359;28;20208;-70
2023/05/11 04:51:12;;;;;;;7.57;6.43;;;13.70;99.90;;;;;;5024937;28;20268;-70
2023/05/11 04:53:37;;;;;;;8.47;7.20;;;13.60;99.90;;;;;;5018122;28;20195;-71
2023/05/11 04:56:03;;;;;;;7.80;7.00;;;13.70;99.90;;;;;;5023589;28;20696;-71
2023/05/11 04:58:29;;;;;;;7.60;5.90;;;13.70;99.90;;;;;;5025487;28;20205;-71
2023/05/11 05:00:54;;;;;;;10.13;7.33;;;13.90;99.90;;;;;;5025326;28;20257;-71
2023/05/11 05:03:20;;;;;;;9.03;6.43;;;13.80;99.90;;;;;;5024266;28;20244;-71
2023/05/11 05:05:45;;;;;;;7.40;6.80;;;13.90;99.90;;;;;;5025447;28;20814;-72
2023/05/11 05:08:11;;;;;;;7.73;6.03;;;13.80;99.90;;;;;;5024593;28;20197;-71
2023/05/11 05:10:37;;;;;;;6.60;6.07;;;13.90;99.90;;;;;;5025177;28;20199;-70
2023/05/11 05:13:02;;;;;;;10.47;6.67;;;14.00;99.90;;;;;;5025871;28;20206;-70
2023/05/11 05:15:28;;;;;;;7.23;6.43;;;13.90;99.90;;;;;;5026158;28;20194;-70
2023/05/11 05:17:53;;;;;;;10.27;6.77;;;14.00;99.90;;;;;;5025679;28;20646;-71
2023/05/11 05:20:19;;;;;;;6.77;6.13;;;14.10;99.90;;;;;;5024970;28;20194;-71
2023/05/11 05:22:45;;;;;;;8.40;6.13;;;14.00;99.90;;;;;;5023865;28;20277;-70
2023/05/11 05:25:11;;;;;;;7.43;6.27;;;14.10;99.90;;;;;;5025234;28;20318;-70
2023/05/11 05:27:36;;;;;;;6.93;6.03;;;14.20;99.90;;;;;;5025144;28;20688;-71
2023/05/11 05:30:02;;;;;;;13.17;6.53;;;14.20;99.90;;;;;;5023768;28;20219;-71
2023/05/11 05:32:28;;;;;;;9.93;7.30;;;14.30;99.90;;;;;;5024838;28;20264;-70
2023/05/11 05:34:53;;;;;;;8.50;7.30;;;14.30;99.90;;;;;;5023358;28;20223;-70
2023/05/11 05:37:19;;;;;;;9.33;8.07;;;14.20;99.90;;;;;;5025788;28;20204;-71
2023/05/11 05:39:44;;;;;;;11.60;10.17;;;14.30;99.90;;;;;;5025170;28;20273;-70
2023/05/11 05:42:10;;;;;;;6.63;6.13;;;14.40;99.90;;;;;;5025123;28;20738;-70
2023/05/11 05:44:35;;;;;;;9.37;7.33;;;14.50;99.90;;;;;;5023509;28;20210;-71
2023/05/11 05:47:01;;;;;;;7.20;6.60;;;14.50;99.90;;;;;;5019834;28;20575;-70
2023/05/11 05:49:27;;;;;;;9.27;7.50;;;14.60;99.90;;;;;;5026613;28;20642;-70
2023/05/11 05:51:53;;;;;;;7.60;6.73;;;14.60;99.90;;;;;;5025535;28;20221;-71
2023/05/11 05:54:18;;;;;;;9.37;6.57;;;14.60;99.90;;;;;;5021442;28;20703;-72
2023/05/11 05:56:44;;;;;;;8.53;6.57;;;14.60;99.90;;;;;;5024090;28;20204;-71
2023/05/11 05:59:11;;;;;;;7.50;6.80;;;14.70;99.90;;;;;;5023681;28;20962;-69
2023/05/11 06:01:43;;;;;;;6.93;6.20;;;14.90;99.90;;;;;;5025414;28;20382;-68
2023/05/11 06:04:08;;;;;;;7.23;6.30;;;15.10;99.90;;;;;;5025006;28;20199;-70
2023/05/11 06:06:33;;;;;;;9.30;6.20;;;15.10;99.90;;;;;;5025186;28;20214;-70
2023/05/11 06:08:59;;;;;;;8.20;7.30;;;15.30;99.90;;;;;;5024970;28;20206;-71
2023/05/11 06:11:25;;;;;;;6.87;6.07;;;15.40;99.90;;;;;;5022532;28;20256;-71
2023/05/11 06:13:50;;;;;;;8.47;7.27;;;15.30;99.90;;;;;;5023931;28;20195;-70
2023/05/11 06:16:16;;;;;;;7.43;6.73;;;15.30;99.90;;;;;;5024553;28;20798;-72
2023/05/11 06:18:41;;;;;;;6.67;6.03;;;15.20;99.90;;;;;;5024691;28;20278;-70
2023/05/11 06:21:07;;;;;;;6.60;5.37;;;15.20;99.90;;;;;;5028154;28;20531;-70
2023/05/11 06:23:33;;;;;;;7.00;5.83;;;15.30;99.90;;;;;;5017133;28;20199;-71
2023/05/11 06:25:58;;;;;;;5.67;4.97;;;15.40;99.90;;;;;;5024945;28;20207;-69
2023/05/11 06:28:24;;;;;;;6.13;5.60;;;15.60;99.90;;;;;;5029652;28;20222;-71
2023/05/11 06:30:49;;;;;;;6.03;5.30;;;15.80;99.90;;;;;;5034477;28;20213;-70
2023/05/11 06:33:15;;;;;;;9.40;5.57;;;15.90;99.90;;;;;;5033907;28;20286;-70
2023/05/11 06:35:40;;;;;;;8.83;5.43;;;16.00;99.90;;;;;;5025066;28;20199;-70
2023/05/11 06:38:06;;;;;;;9.17;5.70;;;16.00;99.90;;;;;;5032308;28;20572;-73
2023/05/11 06:40:31;;;;;;;5.80;4.77;;;16.00;99.90;;;;;;5023929;28;20217;-71
2023/05/11 06:42:57;;;;;;;6.13;4.93;;;16.20;99.90;;;;;;5031881;28;20588;-70
2023/05/11 06:45:22;;;;;;;6.13;4.80;;;16.40;99.90;;;;;;5038310;28;20206;-71
2023/05/11 06:47:48;;;;;;;5.53;5.03;;;16.30;99.90;;;;;;5038567;28;20673;-71
2023/05/11 06:50:13;;;;;;;4.40;4.00;;;16.50;99.90;;;;;;5036784;28;20607;-70
2023/05/11 06:52:39;;;;;;;5.03;4.30;;;16.50;99.90;;;;;;5038137;28;20195;-70
2023/05/11 06:55:04;;;;;;;5.10;4.63;;;16.70;99.90;;;;;;5038145;28;20828;-73
2023/05/11 06:57:30;;;;;;;5.50;4.90;;;16.70;99.90;;;;;;5038193;28;20971;-73
2023/05/11 06:59:56;;;;;;;5.43;4.93;;;16.80;99.90;;;;;;5028495;28;20217;-74
2023/05/11 07:02:21;;;;;;;6.30;4.23;;;16.80;99.90;;;;;;5023111;28;20190;-72
2023/05/11 07:04:47;;;;;;;4.60;4.03;;;16.90;99.90;;;;;;5024889;28;20533;-71
2023/05/11 07:07:12;;;;;;;5.40;4.27;;;16.90;99.90;;;;;;5028715;28;20206;-71
2023/05/11 07:09:38;;;;;;;4.53;4.10;;;17.00;99.90;;;;;;5018652;28;20198;-72
2023/05/11 07:12:04;;;;;;;3.83;3.53;;;17.10;99.90;;;;;;5031058;28;20264;-72
2023/05/11 07:14:29;;;;;;;3.53;3.27;;;17.20;99.90;;;;;;5027347;28;20616;-71
2023/05/11 07:16:55;;;;;;;6.30;3.90;;;17.30;99.50;;;;;;5032581;28;20230;-71
2023/05/11 07:19:21;;;;;;;4.37;3.80;;;17.40;99.60;;;;;;5032310;28;20282;-73
2023/05/11 07:21:46;;;;;;;4.03;3.30;;;17.50;99.40;;;;;;5036676;28;20270;-70
2023/05/11 07:24:12;;;;;;;7.17;3.93;;;17.50;99.30;;;;;;5032217;28;20278;-72
2023/05/11 07:26:37;;;;;;;12.03;3.57;;;17.50;99.20;;;;;;5035039;28;20542;-73
2023/05/11 07:29:02;;;;;;;5.47;3.67;;;17.60;98.90;;;;;;5036508;28;20215;-71
2023/05/11 07:31:28;;;;;;;6.80;3.70;;;17.60;98.90;;;;;;5035429;28;20191;-71
2023/05/11 07:33:54;;;;;;;4.07;3.37;;;17.70;98.90;;;;;;5037460;28;20214;-71
2023/05/11 07:36:20;;;;;;;4.20;3.43;;;17.70;98.30;;;;;;5029473;28;20729;-71
2023/05/11 07:38:45;;;;;;;6.33;3.67;;;17.70;99.10;;;;;;5037178;28;20239;-71
2023/05/11 07:41:11;;;;;;;5.73;3.90;;;17.80;98.50;;;;;;5037397;28;20202;-71
2023/05/11 07:43:36;;;;;;;3.60;3.30;;;17.90;98.30;;;;;;5035523;28;20206;-71
2023/05/11 07:46:01;;;;;;;4.93;3.23;;;18.10;97.80;;;;;;5036920;28;20583;-71
2023/05/11 07:48:27;;;;;;;4.83;4.40;;;18.10;97.80;;;;;;5037330;28;20196;-71
2023/05/11 07:50:53;;;;;;;4.93;3.60;;;18.20;97.90;;;;;;5037057;28;20214;-71
2023/05/11 07:53:18;;;;;;;6.90;3.60;;;18.30;98.10;;;;;;5026634;28;20190;-76
2023/05/11 07:55:44;;;;;;;4.90;2.77;;;18.30;97.50;;;;;;5019997;28;20518;-74
2023/05/11 07:58:09;;;;;;;3.33;3.03;;;18.30;97.80;;;;;;5017843;28;20208;-75
2023/05/11 08:00:35;;;;;;;4.73;3.07;;;18.40;98.00;;;;;;5021891;28;20826;-74
2023/05/11 08:03:00;;;;;;;3.90;3.60;;;18.60;96.90;;;;;;5021891;28;20656;-76
2023/05/11 08:05:26;;;;;;;3.10;2.77;;;18.60;96.70;;;;;;5020238;28;20301;-74
2023/05/11 08:07:51;;;;;;;3.33;3.10;;;18.70;96.80;;;;;;5024520;28;20217;-76
2023/05/11 08:10:17;;;;;;;4.80;2.87;;;18.80;96.30;;;;;;5025698;28;20266;-75
2023/05/11 08:12:43;;;;;;;4.03;3.67;;;18.80;95.60;;;;;;5019754;28;20201;-76
2023/05/11 08:15:08;;;;;;;3.20;2.77;;;18.80;95.90;;;;;;5020749;28;20295;-75
2023/05/11 08:17:35;;;;;;;3.00;2.80;;;18.80;96.10;;;;;;5033127;28;20614;-75
2023/05/11 08:20:01;;;;;;;4.90;3.50;;;18.90;95.60;;;;;;5036333;28;20293;-85
2023/05/11 08:22:27;;;;;;;3.50;3.20;;;19.00;95.40;;;;;;5034707;28;20204;-75
2023/05/11 08:24:52;;;;;;;3.50;3.13;;;19.10;95.80;;;;;;5026691;28;20635;-76
2023/05/11 08:27:18;;;;;;;3.60;2.93;;;19.20;95.40;;;;;;5019260;28;20196;-76
2023/05/11 08:29:43;;;;;;;5.03;3.03;;;19.20;94.70;;;;;;5036578;28;20222;-74
2023/05/11 08:32:09;;;;;;;3.20;2.90;;;19.10;94.70;;;;;;5025442;28;20703;-74
2023/05/11 08:34:34;;;;;;;3.20;2.90;;;19.20;95.60;;;;;;5026349;28;20205;-75
2023/05/11 08:37:03;;;;;;;3.13;2.93;;;19.30;94.70;;;;;;5024807;28;20205;-74
2023/05/11 08:39:29;;;;;;;2.73;2.53;;;19.30;94.90;;;;;;5035958;28;20206;-74
2023/05/11 08:41:56;;;;;;;3.00;2.70;;;19.40;93.80;;;;;;5027796;28;20663;-76
2023/05/11 08:44:23;;;;;;;3.80;2.73;;;19.40;94.20;;;;;;5030242;28;20219;-76
2023/05/11 08:46:51;;;;;;;7.47;6.03;;;19.50;93.70;;;;;;5036103;28;20255;-75
2023/05/11 08:49:17;;;;;;;3.47;2.90;;;19.60;93.40;;;;;;5031787;28;20201;-75
2023/05/11 08:51:44;;;;;;;3.53;3.30;;;19.60;93.30;;;;;;5028225;28;20206;-75
2023/05/11 08:54:09;;;;;;;3.53;2.43;;;19.70;93.40;;;;;;5032845;28;20263;-74
2023/05/11 08:56:36;;;;;;;5.80;3.47;;;19.80;93.60;;;;;;5031393;28;20189;-82
2023/05/11 08:59:03;;;;;;;4.73;2.73;;;19.90;93.30;;;;;;5023245;28;20235;-81
2023/05/11 09:01:30;;;;;;;4.07;3.33;;;19.90;92.30;;;;;;5025053;28;20276;-82
2023/05/11 09:03:57;;;;;;;3.60;3.17;;;19.90;92.30;;;;;;5023739;28;20533;-82
2023/05/11 09:06:24;;;;;;;4.70;3.13;;;20.00;92.70;;;;;;5023783;28;20210;-82
2023/05/11 09:08:49;;;;;;;2.53;2.33;;;20.20;91.40;;;;;;5026665;28;20562;-81
2023/05/11 09:11:15;;;;;;;3.90;2.80;;;20.10;91.50;;;;;;5025440;28;20214;-81
2023/05/11 09:13:41;;;;;;;4.90;2.77;;;20.30;90.70;;;;;;5027476;28;20230;-82
2023/05/11 09:16:08;;;;;;;2.90;2.60;;;20.30;90.10;;;;;;5026822;28;20204;-81
2023/05/11 09:18:33;;;;;;;6.10;2.80;;;20.40;90.20;;;;;;5029817;28;20886;-82
2023/05/11 09:21:01;;;;;;;2.87;2.67;;;20.50;88.70;;;;;;5025160;28;20289;-82
2023/05/11 09:23:26;;;;;;;2.53;2.33;;;20.60;88.60;;;;;;5024486;28;20217;-83
2023/05/11 09:25:52;;;;;;;3.43;2.70;;;20.60;87.60;;;;;;5025245;28;20217;-82
2023/05/11 09:28:23;;;;;;;5.10;2.93;;;20.70;87.10;;;;;;5028217;28;20223;-81
2023/05/11 09:30:49;;;;;;;3.93;2.80;;;20.60;85.70;;;;;;5022885;28;20262;-81
2023/05/11 09:33:23;;;;;;;3.47;2.50;;;20.70;85.80;;;;;;5030467;28;20541;-81
2023/05/11 09:35:49;;;;;;;2.73;2.53;;;20.80;85.90;;;;;;5036418;28;20207;-83
2023/05/11 09:38:15;;;;;;;6.47;3.27;;;20.50;85.00;;;;;;5036467;28;20214;-81
2023/05/11 09:40:50;;;;;;;4.10;2.57;;;20.60;85.00;;;;;;5035935;28;20276;-82
2023/05/11 09:43:25;;;;;;;9.00;4.17;;;20.80;83.70;;;;;;5036151;28;20293;-81
2023/05/11 09:45:54;;;;;;;9.83;3.93;;;20.90;83.70;;;;;;5035836;28;20969;-82
2023/05/11 09:48:19;;;;;;;6.03;2.97;;;21.00;83.30;;;;;;5034194;28;20194;-81
2023/05/11 09:50:46;;;;;;;3.77;2.50;;;21.10;83.50;;;;;;5030084;28;20538;-83
2023/05/11 09:53:11;;;;;;;6.73;3.13;;;21.20;82.90;;;;;;5027902;28;20201;-82
2023/05/11 09:55:37;;;;;;;3.43;2.53;;;21.30;83.30;;;;;;5026230;28;20743;-83
2023/05/11 09:58:03;;;;;;;9.43;2.60;;;21.30;81.40;;;;;;5032205;28;20211;-82
2023/05/11 10:00:29;;;;;;;3.60;3.07;;;21.50;79.20;;;;;;5029346;28;20563;-82
2023/05/11 10:03:03;;;;;;;4.57;2.33;;;21.40;77.90;;;;;;5024949;28;20213;-83
2023/05/11 10:05:30;;;;;;;4.07;2.60;;;21.50;77.90;;;;;;5028464;28;20792;-82
2023/05/11 10:08:01;;;;;;;2.40;2.30;;;21.40;76.60;;;;;;5033070;28;20205;-80
2023/05/11 10:10:28;;;;;;;2.40;2.10;;;21.50;78.60;;;;;;5031491;28;20707;-83
2023/05/11 10:12:57;;;;;;;4.23;2.63;;;21.60;75.50;;;;;;5036072;28;20199;-81
2023/05/11 10:15:27;;;;;;;2.27;2.17;;;21.70;76.00;;;;;;5036261;28;20220;-81
2023/05/11 10:17:57;;;;;;;4.23;2.30;;;21.80;75.30;;;;;;5035846;28;20222;-82
2023/05/11 10:20:24;;;;;;;3.03;2.40;;;21.90;74.70;;;;;;5030147;28;20291;-81
2023/05/11 10:22:54;;;;;;;3.03;2.50;;;22.00;75.50;;;;;;5030044;28;20237;-81
2023/05/11 10:25:21;;;;;;;4.40;2.50;;;22.00;74.00;;;;;;5039368;28;20585;-83
2023/05/11 10:27:47;;;;;;;3.37;2.30;;;21.90;73.60;;;;;;5039969;28;20216;-83
2023/05/11 10:30:13;;;;;;;3.27;2.60;;;21.90;70.90;;;;;;5028053;28;20325;-84
2023/05/11 10:32:39;;;;;;;4.73;2.33;;;21.90;72.20;;;;;;5021604;28;20203;-83
2023/05/11 10:35:05;;;;;;;1.97;1.87;;;22.00;70.60;;;;;;5040059;28;20203;-82
2023/05/11 10:37:37;;;;;;;3.67;2.40;;;22.10;70.90;;;;;;5041369;28;20243;-82
2023/05/11 10:40:03;;;;;;;1.80;1.70;;;22.20;71.70;;;;;;5032369;28;20576;-83
2023/05/11 10:43:00;;;;;;;2.57;2.37;;;22.20;70.50;;;;;;5025862;28;21006;-83
2023/05/11 10:45:45;;;;;;;2.93;2.00;;;22.30;70.50;;;;;;5038984;28;20214;-80
2023/05/11 10:48:41;;;;;;;3.83;2.10;;;22.40;68.40;;;;;;5032376;28;20214;-80
2023/05/11 10:51:35;;;;;;;1.70;1.60;;;22.50;66.90;;;;;;5035625;28;20203;-82
2023/05/11 10:54:16;;;;;;;2.70;2.00;;;22.30;63.90;;;;;;5037796;28;20210;-82
2023/05/11 10:56:51;;;;;;;4.10;2.70;;;22.30;65.80;;;;;;5033880;28;20234;-82
2023/05/11 10:59:30;;;;;;;2.17;1.70;;;22.30;65.80;;;;;;5036653;28;21025;-82
2023/05/11 11:01:58;;;;;;;4.10;2.00;;;22.40;66.70;;;;;;5038557;28;20211;-82
2023/05/11 11:04:24;;;;;;;3.27;1.87;;;22.50;66.60;;;;;;5038763;28;20211;-83
2023/05/11 11:07:04;;;;;;;2.27;2.07;;;22.40;66.00;;;;;;5036929;28;20658;-81
2023/05/11 11:09:55;;;;;;;4.33;2.57;;;22.30;66.20;;;;;;5038878;28;20332;-80
2023/05/11 11:12:22;;;;;;;2.43;2.23;;;22.30;65.30;;;;;;5039459;28;20202;-81
2023/05/11 11:14:58;;;;;;;2.33;2.23;;;22.30;65.30;;;;;;5037581;28;20242;-81
2023/05/11 11:17:30;;;;;;;5.30;2.60;;;22.30;64.50;;;;;;5033520;28;20552;-82
2023/05/11 11:20:03;;;;;;;2.13;2.03;;;22.20;65.00;;;;;;5034344;28;20786;-82
2023/05/11 11:22:37;;;;;;;2.57;2.23;;;22.20;65.70;;;;;;5036796;28;20233;-82
2023/05/11 11:25:10;;;;;;;2.60;2.40;;;22.40;65.20;;;;;;5038357;28;20225;-82
2023/05/11 11:27:57;;;;;;;2.50;2.10;;;22.80;65.20;;;;;;5036969;28;20290;-82
2023/05/11 11:30:28;;;;;;;2.90;2.50;;;23.30;66.50;;;;;;5038727;28;20208;-82
2023/05/11 11:33:15;;;;;;;3.90;2.20;;;23.90;63.90;;;;;;5038169;28;20708;-82
2023/05/11 11:35:40;;;;;;;2.53;2.10;;;23.80;63.20;;;;;;5021741;28;20672;-82
2023/05/11 11:38:11;;;;;;;3.42;2.35;;;24.00;62.10;;;;;;5029362;28;20191;-82
2023/05/11 11:40:42;;;;;;;4.10;2.20;;;24.20;62.40;;;;;;5027816;28;20620;-79
2023/05/11 11:43:24;;;;;;;27.10;4.90;;;24.50;62.00;;;;;;5029040;28;20690;-81
2023/05/11 11:46:01;;;;;;;2.47;2.28;;;24.70;60.80;;;;;;5026456;28;20606;-81
2023/05/11 11:48:41;;;;;;;4.20;2.10;;;25.20;58.90;;;;;;5027975;28;20249;-81
2023/05/11 11:51:11;;;;;;;3.17;2.00;;;24.60;59.10;;;;;;5020249;28;20261;-83
2023/05/11 11:53:38;;;;;;;2.15;2.00;;;23.80;60.70;;;;;;5027432;28;20425;-82
2023/05/11 11:56:27;;;;;;;3.83;2.25;;;23.60;61.00;;;;;;5023496;28;20281;-82
2023/05/11 11:59:01;;;;;;;2.87;2.43;;;23.40;60.30;;;;;;5024536;28;20244;-83
2023/05/11 12:01:33;;;;;;;2.57;2.37;;;23.50;59.50;;;;;;5019291;28;20203;-81
2023/05/11 12:04:18;;;;;;;2.30;2.10;;;23.40;58.70;;;;;;5028643;28;20951;-80
2023/05/11 12:06:49;;;;;;;2.17;1.83;;;23.00;59.00;;;;;;5023295;28;20201;-81
2023/05/11 12:09:18;;;;;;;2.33;2.13;;;23.00;58.50;;;;;;5030041;28;20206;-80
2023/05/11 12:11:46;;;;;;;2.23;2.03;;;22.90;57.90;;;;;;5033694;28;20282;-80
2023/05/11 12:14:12;;;;;;;1.93;1.83;;;22.70;57.50;;;;;;5036517;28;20199;-81
2023/05/11 12:16:37;;;;;;;10.07;2.27;;;22.60;57.50;;;;;;5037371;28;20583;-81
2023/05/11 12:19:03;;;;;;;5.50;1.87;;;22.50;57.90;;;;;;5024933;28;20345;-81
2023/05/11 12:21:33;;;;;;;2.77;1.90;;;22.50;57.20;;;;;;5034274;28;20203;-81
2023/05/11 12:24:03;;;;;;;3.77;1.67;;;22.20;58.00;;;;;;5034465;28;20213;-81
2023/05/11 12:26:31;;;;;;;4.27;2.17;;;22.40;58.30;;;;;;5028224;28;20215;-81
2023/05/11 12:29:07;;;;;;;2.47;2.00;;;22.50;59.20;;;;;;5025212;28;20235;-81
2023/05/11 12:31:43;;;;;;;1.77;1.67;;;22.40;56.90;;;;;;5020177;28;20194;-82
2023/05/11 12:34:21;;;;;;;2.43;1.93;;;22.20;57.60;;;;;;5027752;28;20213;-80
2023/05/11 12:36:48;;;;;;;2.87;2.10;;;22.30;57.20;;;;;;5026582;28;20201;-77
2023/05/11 12:39:21;;;;;;;3.40;1.60;;;22.20;57.10;;;;;;5023294;28;20188;-81
2023/05/11 12:41:48;;;;;;;5.53;1.87;;;22.50;56.40;;;;;;5016289;28;20204;-80
2023/05/11 12:44:16;;;;;;;2.03;1.83;;;22.50;56.80;;;;;;5021009;28;20200;-80
2023/05/11 12:46:42;;;;;;;1.73;1.57;;;22.60;56.90;;;;;;5025304;28;20240;-81
2023/05/11 12:49:08;;;;;;;2.10;2.00;;;22.90;56.70;;;;;;5024392;28;20246;-80